No particular awareness of the weather is required.    There are no Weather-warnings


Meteo18 Weather Cam more information Meteo18 Weather Cam


Thunder radar more information blitzortung!


Rain radar more information rain snow radar


Visit our other weather sites:

Template documentation
and downloads

And another site



Weather Underground History page Text

Daily Summary for March 1, 2018 Units:  English    Metric   Both
« Previous Day
Next Day »
Daily Weekly Monthly Yearly Custom
  High: Low: Average:
Temperature: TemperatureC °F -2.3 °F 3.4 °F
Dew Point: DewpointC °F -3.4 °F 1.2 °F
Humidity: Humidity % 69 % 86 %
Wind Speed: WindSpeedKMH mph 0.0 mph 4.9 mph
Wind Gust: WindSpeedGustKMH mph - -
Wind:- - ENE
Pressure: PressurehPa in 986.3 in -
Precipitation: 2.3 in    
Historical Graphs
 
 
Tabular Data for March 1, 2018
Time Temperature Dew Point Pressure Wind Wind Speed Wind Gust Humidity Rainfall Rate (Hourly)
TemperatureC °F DewpointC °F PressurehPa in Calm     Humidity % HourlyPrecipMM in
00:02 -2.3 °F -3.4 °F 997.9 in NNE 7.9 mph 12.9 mph 92 % 0.0 in
00:08 -2.3 °F -3.3 °F 997.9 in NE 7.9 mph 12.9 mph 93 % 0.0 in
00:14 -2.3 °F -3.3 °F 997.9 in NE 6.4 mph 14.5 mph 93 % 0.0 in
00:20 -2.2 °F -3.2 °F 997.9 in NNE 11.1 mph 16.1 mph 93 % 0.0 in
00:26 -2.2 °F -3.2 °F 997.9 in NE 3.2 mph 11.3 mph 93 % 0.0 in
00:32 -2.2 °F -3.2 °F 997.9 in East 7.9 mph 12.9 mph 93 % 0.0 in
00:38 -2.2 °F -3.2 °F 997.9 in NE 11.1 mph 12.9 mph 93 % 0.0 in
00:44 -2.1 °F -2.9 °F 997.5 in NE 7.9 mph 12.9 mph 94 % 0.0 in
00:50 -2.1 °F -2.9 °F 997.5 in NNE 9.7 mph 16.1 mph 94 % 0.0 in
00:57 -2.1 °F -2.9 °F 997.5 in ENE 6.4 mph 12.9 mph 94 % 0.0 in
01:03 -2.1 °F -2.9 °F 997.5 in ENE 9.7 mph 11.3 mph 94 % 0.0 in
01:09 -1.9 °F -2.7 °F 997.5 in NE 7.9 mph 12.9 mph 94 % 0.0 in
01:15 -1.9 °F -2.7 °F 997.5 in NE 11.1 mph 16.1 mph 94 % 0.0 in
01:21 -1.8 °F -2.6 °F 997.5 in NE 6.4 mph 12.9 mph 94 % 0.0 in
01:27 -1.8 °F -2.6 °F 997.5 in NE 14.3 mph 14.5 mph 94 % 0.0 in
01:33 -1.7 °F -2.5 °F 997.5 in NNE 9.7 mph 16.1 mph 94 % 0.0 in
01:39 -1.7 °F -2.5 °F 997.5 in NE 9.7 mph 14.5 mph 94 % 0.0 in
01:45 -1.8 °F -2.8 °F 997.5 in NNE 9.7 mph 14.5 mph 93 % 0.0 in
01:51 -1.8 °F -2.6 °F 997.5 in NNE 11.1 mph 16.1 mph 94 % 0.0 in
01:57 -1.8 °F -2.6 °F 997.5 in NE 6.4 mph 11.3 mph 94 % 0.0 in
02:03 -1.8 °F -2.6 °F 997.2 in ENE 9.7 mph 11.3 mph 94 % 0.0 in
02:09 -1.8 °F -2.6 °F 997.5 in NNE 6.4 mph 9.7 mph 94 % 0.0 in
02:15 -1.9 °F -2.7 °F 997.2 in NE 7.9 mph 12.9 mph 94 % 0.0 in
02:21 -1.9 °F -2.7 °F 997.2 in ENE 6.4 mph 11.3 mph 94 % 0.0 in
02:27 -1.9 °F -2.7 °F 997.2 in NNE 7.9 mph 12.9 mph 94 % 0.0 in
02:33 -1.9 °F -2.6 °F 996.8 in NNE 6.4 mph 9.7 mph 95 % 0.0 in
02:39 -1.8 °F -2.5 °F 996.8 in ENE 6.4 mph 11.3 mph 95 % 0.0 in
02:45 -1.8 °F -2.5 °F 996.8 in NNE 7.9 mph 11.3 mph 95 % 0.0 in
02:51 -1.8 °F -2.5 °F 996.8 in NE 3.2 mph 9.7 mph 95 % 0.0 in
02:57 -1.9 °F -2.6 °F 996.5 in ENE 6.4 mph 9.7 mph 95 % 0.0 in
03:03 -1.9 °F -2.6 °F 996.5 in NNE 3.2 mph 9.7 mph 95 % 0.0 in
03:09 -1.8 °F -2.5 °F 996.5 in NE 3.2 mph 12.9 mph 95 % 0.0 in
03:15 -1.8 °F -2.5 °F 996.2 in NE 9.7 mph 11.3 mph 95 % 0.0 in
03:21 -1.9 °F -2.6 °F 996.2 in NE 4.7 mph 9.7 mph 95 % 0.0 in
03:27 -1.8 °F -2.5 °F 996.2 in NE 7.9 mph 12.9 mph 95 % 0.0 in
03:33 -1.8 °F -2.5 °F 995.8 in NE 6.4 mph 11.3 mph 95 % 0.0 in
03:39 -1.8 °F -2.5 °F 995.8 in NE 7.9 mph 14.5 mph 95 % 0.0 in
03:45 -1.8 °F -2.5 °F 995.8 in ENE 6.4 mph 12.9 mph 95 % 0.0 in
03:51 -1.7 °F -2.3 °F 995.8 in NE 4.7 mph 8.0 mph 96 % 0.0 in
03:57 -1.7 °F -2.4 °F 995.8 in NE 1.4 mph 9.7 mph 95 % 0.0 in
04:03 -1.7 °F -2.3 °F 995.8 in NE 6.4 mph 11.3 mph 96 % 0.0 in
04:09 -1.7 °F -2.3 °F 995.8 in NE 7.9 mph 11.3 mph 96 % 0.0 in
04:15 -1.7 °F -2.3 °F 995.8 in NE 4.7 mph 9.7 mph 96 % 0.0 in
04:21 -1.7 °F -2.3 °F 995.8 in NNE 9.7 mph 14.5 mph 96 % 0.0 in
04:27 -1.6 °F -2.2 °F 995.8 in NE 9.7 mph 11.3 mph 96 % 0.0 in
04:33 -1.6 °F -2.2 °F 995.8 in NE 6.4 mph 8.0 mph 96 % 0.0 in
04:39 -1.6 °F -2.2 °F 995.5 in ENE 3.2 mph 6.4 mph 96 % 0.0 in
04:45 -1.6 °F -2.2 °F 995.5 in NE 4.7 mph 8.0 mph 96 % 0.0 in
04:51 -1.6 °F -2.2 °F 995.5 in ENE 3.2 mph 6.4 mph 96 % 0.0 in
04:57 -1.6 °F -2.2 °F 995.5 in NE 4.7 mph 8.0 mph 96 % 0.0 in
05:03 -1.6 °F -2.2 °F 995.5 in ENE 1.4 mph 9.7 mph 96 % 0.0 in
05:09 -1.6 °F -2.2 °F 995.5 in NE 7.9 mph 8.0 mph 96 % 0.0 in
05:15 -1.6 °F -2.2 °F 995.5 in NE 4.7 mph 8.0 mph 96 % 0.0 in
05:21 -1.6 °F -2.2 °F 995.5 in NE 6.4 mph 9.7 mph 96 % 0.0 in
05:27 -1.5 °F -2.1 °F 995.5 in NE 1.4 mph 6.4 mph 96 % 0.0 in
05:33 -1.4 °F -2.0 °F 995.5 in NE 4.7 mph 8.0 mph 96 % 0.0 in
05:39 -1.4 °F -2.0 °F 995.5 in NE 6.4 mph 9.7 mph 96 % 0.0 in
05:45 -1.4 °F -2.0 °F 995.5 in NE 3.2 mph 6.4 mph 96 % 0.0 in
05:51 -1.4 °F -2.0 °F 995.5 in NE 3.2 mph 8.0 mph 96 % 0.0 in
05:57 -1.4 °F -2.0 °F 995.5 in NE 1.4 mph 4.8 mph 96 % 0.0 in
06:03 -1.4 °F -2.0 °F 995.1 in NE 1.4 mph 6.4 mph 96 % 0.0 in
06:09 -1.3 °F -1.9 °F 995.1 in ENE 1.4 mph 6.4 mph 96 % 0.0 in
06:15 -1.3 °F -1.9 °F 995.1 in NE 3.2 mph 6.4 mph 96 % 0.0 in
06:21 -1.3 °F -1.9 °F 995.1 in ENE 1.4 mph 4.8 mph 96 % 0.0 in
06:27 -1.2 °F -1.8 °F 995.1 in ENE 3.2 mph 4.8 mph 96 % 0.0 in
06:33 -1.2 °F -1.8 °F 995.1 in ENE 3.2 mph 8.0 mph 96 % 0.0 in
06:39 -1.1 °F -1.7 °F 995.1 in ENE 3.2 mph 8.0 mph 96 % 0.0 in
06:45 -1.0 °F -1.6 °F 995.1 in ENE 3.2 mph 6.4 mph 96 % 0.0 in
06:51 -0.9 °F -1.5 °F 995.1 in ENE 1.4 mph 6.4 mph 96 % 0.0 in
06:57 -0.8 °F -1.4 °F 995.1 in NNE 3.2 mph 4.8 mph 96 % 0.0 in
07:03 -0.8 °F -1.4 °F 995.1 in ENE 3.2 mph 4.8 mph 96 % 0.0 in
07:09 -0.7 °F -1.3 °F 995.1 in Calm   3.2 mph 96 % 0.0 in
07:15 -0.7 °F -1.3 °F 995.1 in ENE 1.4 mph 4.8 mph 96 % 0.0 in
07:21 -0.6 °F -1.2 °F 995.1 in ENE 3.2 mph 3.2 mph 96 % 0.0 in
07:27 -0.6 °F -1.2 °F 995.1 in ENE 1.4 mph 4.8 mph 96 % 0.0 in
07:33 -0.5 °F -1.1 °F 994.8 in ENE 3.2 mph 4.8 mph 96 % 0.0 in
07:39 -0.4 °F -1.0 °F 994.8 in Calm   4.8 mph 96 % 0.0 in
07:45 -0.4 °F -1.0 °F 994.8 in Calm   3.2 mph 96 % 0.0 in
07:51 -0.3 °F -0.9 °F 994.8 in ENE 1.4 mph 3.2 mph 96 % 0.0 in
07:57 -0.3 °F -0.9 °F 994.8 in NE 1.4 mph 1.6 mph 96 % 0.0 in
08:03 -0.2 °F -0.8 °F 994.8 in ENE 1.4 mph 1.6 mph 96 % 0.0 in
08:09 -0.2 °F -0.8 °F 994.8 in ENE 3.2 mph 3.2 mph 96 % 0.0 in
08:15 -0.2 °F -0.8 °F 994.8 in Calm   3.2 mph 96 % 0.0 in
08:21 -0.1 °F -0.7 °F 994.8 in ENE 1.4 mph 3.2 mph 96 % 0.0 in
08:27 -0.1 °F -0.7 °F 994.8 in Calm   4.8 mph 96 % 0.0 in
08:33 -0.1 °F -0.7 °F 994.8 in Calm   1.6 mph 96 % 0.0 in
08:39 -0.1 °F -0.7 °F 994.8 in Calm   1.6 mph 96 % 0.0 in
08:45 0.0 °F -0.6 °F 994.8 in Calm     96 % 0.0 in
08:52 0.0 °F -0.6 °F 994.8 in Calm   1.6 mph 96 % 0.0 in
08:58 0.1 °F -0.5 °F 994.8 in NE 1.4 mph 1.6 mph 96 % 0.0 in
09:04 0.2 °F -0.4 °F 994.5 in Calm   1.6 mph 96 % 0.0 in
09:10 0.3 °F -0.3 °F 994.8 in Calm     96 % 0.0 in
09:18 0.5 °F 0.1 °F 994.5 in Calm     97 % 0.0 in
09:24 0.6 °F 0.0 °F 994.5 in NE 3.2 mph 3.2 mph 96 % 0.0 in
09:30 0.6 °F 0.0 °F 994.5 in Calm   1.6 mph 96 % 0.0 in
09:36 0.8 °F 0.2 °F 994.1 in Calm     96 % 0.0 in
09:42 0.9 °F 0.3 °F 994.1 in Calm   1.6 mph 96 % 0.0 in
09:48 1.1 °F 0.5 °F 994.1 in Calm     96 % 0.0 in
09:56 1.3 °F 0.7 °F 994.1 in Calm     96 % 0.0 in
10:00 1.4 °F 0.8 °F 994.1 in NE 3.2 mph 3.2 mph 96 % 0.0 in
10:06 1.3 °F 0.7 °F 994.1 in Calm   3.2 mph 96 % 0.0 in
10:12 1.4 °F 0.8 °F 994.1 in Calm     96 % 0.0 in
10:18 1.6 °F 1.0 °F 994.1 in Calm   1.6 mph 96 % 0.0 in
10:20 1.6 °F 1.0 °F 994.1 in Calm   1.6 mph 96 % 0.0 in
10:26 1.6 °F 1.0 °F 994.1 in Calm     96 % 0.0 in
10:32 1.7 °F 1.0 °F 993.8 in NE 3.2 mph 3.2 mph 95 % 0.0 in
10:38 1.7 °F 1.1 °F 993.8 in Calm   3.2 mph 96 % 0.0 in
10:44 1.9 °F 1.3 °F 993.8 in NE 1.4 mph 3.2 mph 96 % 0.3 in
10:50 2.0 °F 1.4 °F 993.8 in Calm   3.2 mph 96 % 0.5 in
10:56 2.2 °F 1.6 °F 993.5 in Calm   1.6 mph 96 % 0.5 in
11:03 2.3 °F 1.6 °F 993.5 in NE 1.4 mph 3.2 mph 95 % 1.0 in
11:09 2.4 °F 1.7 °F 993.5 in Calm   3.2 mph 95 % 1.3 in
11:15 2.4 °F 1.7 °F 993.5 in Calm   3.2 mph 95 % 1.5 in
11:21 2.6 °F 1.9 °F 993.5 in ENE 1.4 mph 4.8 mph 95 % 1.5 in
11:27 2.9 °F 2.0 °F 993.5 in ENE 4.7 mph 4.8 mph 94 % 1.5 in
11:33 3.1 °F 2.1 °F 993.5 in East 1.4 mph 3.2 mph 93 % 1.5 in
11:39 3.2 °F 2.0 °F 993.5 in Calm   3.2 mph 92 % 1.8 in
11:45 3.3 °F 2.0 °F 993.5 in Calm   4.8 mph 91 % 1.5 in
11:51 3.4 °F 1.9 °F 993.5 in East 3.2 mph 3.2 mph 90 % 1.5 in
11:57 3.5 °F 2.0 °F 993.5 in ENE 4.7 mph 4.8 mph 90 % 1.3 in
12:03 3.6 °F 2.0 °F 993.1 in Calm   6.4 mph 89 % 1.0 in
12:09 3.7 °F 2.1 °F 993.1 in ENE 3.2 mph 6.4 mph 89 % 0.8 in
12:15 3.7 °F 2.1 °F 992.8 in NE 4.7 mph 6.4 mph 89 % 0.8 in
12:21 3.9 °F 2.1 °F 992.8 in ENE 3.2 mph 6.4 mph 88 % 0.8 in
12:27 4.0 °F 2.2 °F 992.8 in East 1.4 mph 3.2 mph 88 % 0.5 in
12:33 4.2 °F 2.2 °F 992.4 in ENE 4.7 mph 6.4 mph 87 % 0.5 in
12:39 4.3 °F 2.3 °F 992.4 in ENE 4.7 mph 6.4 mph 87 % 0.5 in
12:45 4.5 °F 2.4 °F 992.1 in East 4.7 mph 9.7 mph 86 % 0.5 in
12:51 4.7 °F 2.4 °F 992.1 in East 6.4 mph 8.0 mph 85 % 0.3 in
12:57 5.1 °F 2.6 °F 992.1 in NE 4.7 mph 8.0 mph 84 % 0.3 in
13:03 5.6 °F 3.1 °F 991.8 in East 3.2 mph 9.7 mph 84 % 0.3 in
13:09 5.9 °F 2.9 °F 991.8 in East 6.4 mph 11.3 mph 81 % 0.3 in
13:15 6.1 °F 2.7 °F 991.8 in East 9.7 mph 11.3 mph 79 % 0.0 in
13:21 6.3 °F 3.1 °F 991.4 in ENE 6.4 mph 8.0 mph 80 % 0.0 in
13:27 6.6 °F 3.0 °F 991.4 in East 7.9 mph 14.5 mph 78 % 0.0 in
13:33 6.8 °F 3.2 °F 991.4 in ENE 9.7 mph 11.3 mph 78 % 0.0 in
13:39 7.0 °F 3.2 °F 991.1 in East 7.9 mph 14.5 mph 77 % 0.0 in
13:45 7.3 °F 3.3 °F 991.1 in East 6.4 mph 12.9 mph 76 % 0.0 in
13:51 7.6 °F 3.5 °F 991.1 in East 7.9 mph 9.7 mph 75 % 0.0 in
13:57 7.7 °F 3.2 °F 991.1 in ESE 13.0 mph 14.5 mph 73 % 0.0 in
14:03 8.0 °F 3.5 °F 990.7 in SE 6.4 mph 16.1 mph 73 % 0.0 in
14:09 8.3 °F 3.7 °F 990.7 in NE 9.7 mph 16.1 mph 73 % 0.0 in
14:15 8.4 °F 3.8 °F 990.7 in ENE 6.4 mph 11.3 mph 73 % 0.0 in
14:21 8.7 °F 3.7 °F 990.7 in East 11.1 mph 14.5 mph 71 % 0.0 in
14:23 8.8 °F 4.2 °F 990.7 in ENE 6.4 mph 14.5 mph 73 % 0.0 in
14:29 8.9 °F 3.9 °F 990.7 in ESE 7.9 mph 11.3 mph 71 % 0.0 in
14:35 9.1 °F 4.3 °F 990.4 in ENE 9.7 mph 14.5 mph 72 % 0.0 in
14:41 9.1 °F 3.9 °F 990.4 in East 11.1 mph 16.1 mph 70 % 0.0 in
14:47 9.3 °F 4.3 °F 990.1 in East 4.7 mph 11.3 mph 71 % 0.0 in
14:53 9.3 °F 4.3 °F 990.1 in ENE 11.1 mph 16.1 mph 71 % 0.0 in
14:59 9.2 °F 4.4 °F 990.1 in East 4.7 mph 12.9 mph 72 % 0.0 in
15:05 9.3 °F 4.1 °F 990.1 in ENE 6.4 mph 14.5 mph 70 % 0.0 in
15:11 9.4 °F 4.2 °F 990.1 in East 7.9 mph 12.9 mph 70 % 0.0 in
15:17 9.4 °F 4.4 °F 990.1 in ENE 4.7 mph 14.5 mph 71 % 0.0 in
15:23 9.5 °F 4.3 °F 989.7 in East 6.4 mph 11.3 mph 70 % 0.0 in
15:29 9.4 °F 4.2 °F 989.7 in ENE 11.1 mph 19.3 mph 70 % 0.0 in
15:35 9.4 °F 4.2 °F 989.4 in East 7.9 mph 14.5 mph 70 % 0.0 in
15:41 9.4 °F 4.2 °F 989.4 in East 6.4 mph 11.3 mph 70 % 0.0 in
15:47 9.5 °F 4.5 °F 989.4 in East 6.4 mph 9.7 mph 71 % 0.0 in
15:53 9.6 °F 4.4 °F 989.4 in East 6.4 mph 16.1 mph 70 % 0.0 in
15:59 9.6 °F 4.6 °F 989.1 in East 4.7 mph 11.3 mph 71 % 0.0 in
16:05 9.7 °F 4.5 °F 989.1 in ENE 6.4 mph 12.9 mph 70 % 0.0 in
16:11 9.7 °F 4.5 °F 989.1 in ENE 3.2 mph 12.9 mph 70 % 0.0 in
16:17 9.8 °F 4.8 °F 988.7 in East 6.4 mph 12.9 mph 71 % 0.0 in
16:23 10.0 °F 4.8 °F 988.7 in ESE 3.2 mph 8.0 mph 70 % 0.0 in
16:29 10.0 °F 4.6 °F 988.7 in East 4.7 mph 11.3 mph 69 % 0.0 in
16:35 9.9 °F 4.5 °F 988.7 in ENE 6.4 mph 8.0 mph 69 % 0.0 in
16:41 9.8 °F 4.6 °F 988.4 in ESE 3.2 mph 9.7 mph 70 % 0.0 in
16:47 9.8 °F 4.6 °F 988.4 in East 3.2 mph 4.8 mph 70 % 0.0 in
16:53 9.8 °F 4.6 °F 988.4 in East 3.2 mph 8.0 mph 70 % 0.0 in
16:59 9.7 °F 4.7 °F 988.7 in East 6.4 mph 6.4 mph 71 % 0.0 in
17:05 9.7 °F 4.7 °F 988.4 in East 9.7 mph 12.9 mph 71 % 0.0 in
17:11 9.5 °F 4.5 °F 988.4 in East 3.2 mph 9.7 mph 71 % 0.0 in
17:17 9.4 °F 4.6 °F 988.4 in ENE 7.9 mph 12.9 mph 72 % 0.0 in
17:23 9.4 °F 4.6 °F 988.4 in NE 7.9 mph 9.7 mph 72 % 0.0 in
17:29 9.3 °F 4.5 °F 988.4 in East 4.7 mph 8.0 mph 72 % 0.0 in
17:35 9.3 °F 4.5 °F 988.4 in SE 4.7 mph 12.9 mph 72 % 0.0 in
17:41 9.2 °F 4.4 °F 988.4 in ESE 6.4 mph 11.3 mph 72 % 0.0 in
17:47 9.3 °F 4.5 °F 988.4 in ENE 9.7 mph 12.9 mph 72 % 0.0 in
17:53 9.2 °F 4.6 °F 988.0 in ENE 4.7 mph 11.3 mph 73 % 0.0 in
17:59 9.1 °F 4.5 °F 988.0 in SE 3.2 mph 8.0 mph 73 % 0.0 in
18:05 8.8 °F 4.4 °F 988.0 in ESE 4.7 mph 8.0 mph 74 % 0.0 in
18:11 8.6 °F 4.4 °F 988.0 in East 3.2 mph 8.0 mph 75 % 0.0 in
18:17 8.5 °F 4.3 °F 988.0 in East 4.7 mph 6.4 mph 75 % 0.0 in
18:23 8.4 °F 4.2 °F 988.0 in ESE 9.7 mph 9.7 mph 75 % 0.0 in
18:29 8.4 °F 4.2 °F 988.0 in East 11.1 mph 22.5 mph 75 % 0.0 in
18:35 8.4 °F 4.2 °F 988.0 in Calm   12.9 mph 75 % 0.0 in
18:41 8.2 °F 4.0 °F 988.0 in East 3.2 mph 8.0 mph 75 % 0.0 in
18:47 8.1 °F 4.1 °F 988.0 in East 4.7 mph 12.9 mph 76 % 0.0 in
18:53 7.9 °F 3.9 °F 988.0 in East 4.7 mph 8.0 mph 76 % 0.0 in
18:59 7.7 °F 3.9 °F 988.0 in Calm   3.2 mph 77 % 0.0 in
19:05 7.5 °F 3.9 °F 988.0 in Calm   3.2 mph 78 % 0.0 in
19:12 7.4 °F 3.8 °F 988.4 in Calm   3.2 mph 78 % 0.0 in
19:18 7.2 °F 3.6 °F 988.4 in SE 1.4 mph 1.6 mph 78 % 0.0 in
19:24 7.1 °F 3.7 °F 988.4 in SE 1.4 mph 1.6 mph 79 % 0.0 in
19:30 6.9 °F 3.7 °F 988.4 in Calm     80 % 0.0 in
19:36 6.8 °F 3.6 °F 988.0 in ESE 1.4 mph 4.8 mph 80 % 0.0 in
19:42 6.7 °F 3.5 °F 988.0 in East 16.3 mph 16.3 mph 80 % 0.0 in
19:48 6.8 °F 3.6 °F 988.0 in SE 4.7 mph 12.9 mph 80 % 0.0 in
19:54 6.7 °F 3.5 °F 988.0 in East 3.2 mph 9.7 mph 80 % 0.0 in
20:00 6.4 °F 3.4 °F 987.7 in East 6.4 mph 16.1 mph 81 % 0.0 in
20:06 6.2 °F 3.2 °F 987.7 in Calm   6.4 mph 81 % 0.0 in
20:12 6.2 °F 3.4 °F 987.7 in ENE 3.2 mph 4.8 mph 82 % 0.0 in
20:18 6.3 °F 3.5 °F 987.7 in ESE 4.7 mph 12.9 mph 82 % 0.0 in
20:24 6.2 °F 3.4 °F 987.7 in SE 6.4 mph 11.3 mph 82 % 0.0 in
20:30 6.1 °F 3.3 °F 987.7 in SE 6.4 mph 8.0 mph 82 % 0.0 in
20:36 6.1 °F 3.3 °F 987.7 in East 6.4 mph 8.0 mph 82 % 0.0 in
20:42 6.1 °F 3.3 °F 987.7 in East 3.2 mph 6.4 mph 82 % 0.0 in
20:48 5.9 °F 3.2 °F 987.7 in East 4.7 mph 12.9 mph 83 % 0.0 in
20:54 6.1 °F 3.4 °F 987.7 in ENE 3.2 mph 9.7 mph 83 % 0.0 in
21:00 6.2 °F 3.4 °F 987.7 in East 4.7 mph 9.7 mph 82 % 0.0 in
21:06 6.3 °F 3.3 °F 987.7 in East 1.4 mph 12.9 mph 81 % 0.0 in
21:12 6.4 °F 3.6 °F 987.4 in East 3.2 mph 14.5 mph 82 % 0.0 in
21:18 6.3 °F 3.5 °F 987.4 in ENE 4.7 mph 14.5 mph 82 % 0.0 in
21:24 6.3 °F 3.5 °F 987.4 in East 11.1 mph 12.9 mph 82 % 0.0 in
21:30 6.3 °F 3.5 °F 987.4 in ESE 7.9 mph 14.5 mph 82 % 0.0 in
21:36 6.2 °F 3.4 °F 987.4 in East 3.2 mph 8.0 mph 82 % 0.0 in
21:42 6.2 °F 3.4 °F 987.4 in East 6.4 mph 12.9 mph 82 % 0.0 in
21:48 6.2 °F 3.4 °F 987.4 in ESE 3.2 mph 12.9 mph 82 % 0.0 in
21:54 6.2 °F 3.4 °F 987.0 in ENE 9.7 mph 11.3 mph 82 % 0.0 in
22:00 6.3 °F 3.5 °F 987.0 in East 6.4 mph 11.3 mph 82 % 0.0 in
22:06 6.3 °F 3.5 °F 987.0 in East 6.4 mph 9.7 mph 82 % 0.0 in
22:14 6.3 °F 3.5 °F 987.0 in East 6.4 mph 14.5 mph 82 % 0.0 in
22:20 6.3 °F 3.5 °F 987.0 in ENE 11.1 mph 11.3 mph 82 % 0.0 in
22:30 6.4 °F 3.6 °F 987.0 in East 4.7 mph 11.3 mph 82 % 0.0 in
22:36 6.4 °F 3.6 °F 986.7 in ESE 11.1 mph 11.3 mph 82 % 0.0 in
22:42 6.5 °F 3.5 °F 986.7 in East 9.7 mph 16.1 mph 81 % 0.0 in
22:48 6.6 °F 3.6 °F 986.7 in East 11.1 mph 11.3 mph 81 % 0.0 in
22:54 6.6 °F 3.6 °F 986.7 in East 3.2 mph 12.9 mph 81 % 0.0 in
23:00 6.6 °F 3.6 °F 986.7 in ENE 6.4 mph 12.9 mph 81 % 0.0 in
23:06 6.7 °F 3.7 °F 986.7 in ESE 7.9 mph 12.9 mph 81 % 0.0 in
23:12 6.5 °F 3.5 °F 986.7 in East 3.2 mph 11.3 mph 81 % 0.0 in
23:18 6.5 °F 3.6 °F 986.7 in East 6.4 mph 11.3 mph 82 % 0.0 in
23:24 6.5 °F 3.6 °F 986.3 in East 11.1 mph 12.9 mph 82 % 0.0 in
23:30 6.4 °F 3.6 °F 986.3 in East 4.7 mph 16.1 mph 82 % 0.0 in
23:36 6.4 °F 3.6 °F 986.3 in East 9.7 mph 14.5 mph 82 % 0.0 in
23:42 6.4 °F 3.6 °F 986.3 in SE 6.4 mph 11.3 mph 82 % 0.0 in
23:48 6.4 °F 3.6 °F 986.3 in East 4.7 mph 12.9 mph 82 % 0.0 in
23:54 6.2 °F 3.5 °F 986.3 in SE 1.4 mph 8.0 mph 83 % 0.0 in
Meteo18
Compliments of Weather Underground - 4 mb

Script developed by  Jim McMurry - jmcmurry@mwt.net Adapted for the template by  Wim van der Kuil - Leuven-Template.eu

You find our weather info also at:

European Weather Network

Weather Underground

Equipment we use:

Weather-station
Davis Vue

Weather-program
Meteobridge

Weather-server
Raspberry PI 2 B+

Provider
1 and 1

Davis Vue

Meteobridge

Raspberry PI 2 B+

1 and 1